Canyoncito, New Mexico
Current Conditions -  °F | °C
As of 5:53 AM on Tuesday 21 Oct 2014 (Local Time) from KSAF Reporting Station
Broken Clouds Broken Clouds  
Wind Chill: 45°   Ceiling: 5500
Heat Index: 47°   Visibility: 10mi
Dew Point: 44°   Wind: 5mph
Humidity: 90%   Direction: 10°N
Pressure: 30.19"   Gusts: NA
Location:  35.6111°N, 105.774°W
Report Text: KSAF 211153Z AUTO 01004KT 10SM BKN055 08/07 A3019 RMK AO2 SLP162 70008 T00830067 10106 20078 56004
Loading
Personal Weather Stations






























Interactive Weather Map
Tropical Storm Tracking
New forecast layout! Learn more

10-Day Weather Forecast

Advertisements
Track Severe Weather on mobile